Weather observations for the past three days for
Sisseton, Sisseton Municipal Airport
Imperial (Metric)
Date Time (cdt) Wind (mph) Vis. (mi.) Weather Sky Cond. Temperature (ºF) Relative Humidity Wind Chill (°F) Heat Index (°F) Pressure Precipitation (in)
Air Dwpt 6 hour altimeter (in) sea level (mb) 1 hr 3 hr 6 hr
Max. Min.
01 14:56 NE 3 0.00 NULL NULL 77 57.9 52% 79 29.95 1012.4
01 13:56 NE 3 0.00 NULL NULL 75.9 57.9 54% 78 29.95 1012.7
01 11:56 NE 3 0.00 NULL NULL 75.9 59 56% 78 29.97 1013.6
01 10:56 E 3 0.00 NULL NULL 73.9 57.9 57% 29.98 1014.1
01 09:56 N 3 0.00 NULL NULL 73.9 57 56% 29.97 1013.7
01 08:56 Calm 0.00 NULL NULL 70 59 68% 29.99 1014.0
01 07:56 Calm 0.00 NULL NULL 55.9 54 93% 29.98 1014.2
01 06:56 W 3 0.00 NULL NULL 53.1 51.1 68 51.1 93% 29.96 1013.4
01 05:56 Calm 0.00 NULL NULL 54 52 93% 29.95 1012.7
01 04:56 NW 5 0.00 NULL NULL 57 54 90% 29.93 1012.0
01 03:56 SW 5 0.00 NULL NULL 59 55 87% 29.91 1011.3
01 02:56 W 8 0.00 NULL NULL 66 57 73% 29.92 1011.2
01 01:56 W 7 0.00 NULL NULL 68 57 68% 29.93 1011.5
01 00:56 W 5 0.00 NULL NULL 66 57 81 59 73% 29.93 1011.6
31 23:56 SW 6 0.00 NULL NULL 64 55.9 75% 29.92 1011.5
31 22:56 S 6 0.00 NULL NULL 59 55.9 90% 29.91 1011.7
31 21:56 S 5 0.00 NULL NULL 62.1 57 84% 29.91 1011.5
31 20:56 S 3 0.00 NULL NULL 68 59 73% 29.89 1011.0
31 19:56 SW 3 0.00 NULL NULL 73 57.9 59% 29.88 1010.6
31 17:56 SW 9 0.00 NULL NULL 84 51.1 32% 82 29.88 1010.0
31 16:56 SW 9 0.00 NULL NULL 84 50 31% 82 29.88 1009.8
31 15:56 W 12 0.00 NULL NULL 84.9 48.9 29% 83 29.89 1010.3
31 14:56 W 9 0.00 NULL NULL 84 51.1 32% 82 29.9 1010.4
31 13:56 W 5 0.00 NULL NULL 82 48.9 32% 81 29.9 1010.5
31 12:56 W 7 0.00 NULL NULL 81 57 81 60.1 44% 81 29.9 1010.8
31 11:56 N 6 0.00 NULL NULL 77 57 50% 79 29.92 1011.3
31 10:56 Vrbl 3 0.00 NULL NULL 75 57 54% 78 29.9 1010.8
31 09:56 Calm 0.00 NULL NULL 71.1 57 61% 29.9 1010.9
31 08:56 N 5 0.00 NULL NULL 66.9 57.9 73% 29.89 1010.3
31 07:56 N 5 0.00 NULL NULL 63 57.9 84% 29.86 1009.7
31 06:56 NW 7 0.00 NULL NULL 61 57.9 71.1 61 90% 29.84 1008.9
31 05:56 NW 13 0.00 NULL NULL 63 61 93% 29.81 1007.8
31 04:56 NW 8 0.00 NULL NULL 64.9 62.1 90% 29.79 1007.0
31 03:56 NW 12 0.00 NULL NULL 64.9 62.1 90% 29.76 1006.2
31 02:56 NW 8 0.00 NULL NULL 66.9 66 97% 29.75 1005.7
31 01:56 NW 7 0.00 NULL NULL 70 69.1 97% 29.74 1005.3
31 00:56 NW 6 0.00 NULL NULL 69.1 69.1 79 66.9 100% 29.73 1005.1
30 23:56 W 5 0.00 NULL NULL 69.1 69.1 100% 29.7 1004.2
30 22:56 SE 5 0.00 NULL NULL 70 70 100% 29.69 1003.8
30 21:56 Calm 0.00 NULL NULL 73 72 96% 29.71 1004.5
30 20:56 Calm 0.00 NULL NULL 75.9 73 91% 76 29.68 1003.4
30 19:56 SE 8 0.00 NULL NULL 77 73 88% 78 29.67 1002.8
30 18:56 SE 10 0.00 NULL NULL 79 73 82 72 82% 82 29.68 1003.3
30 17:56 SE 8 0.00 NULL NULL 80.1 73 79% 84 29.69 1003.5
30 15:56 S 13 G 18 0.00 NULL NULL 78.1 71.1 79% 80 29.71 1004.5
30 14:56 SE 14 0.00 NULL NULL 77 71.1 82% 79 29.72 1004.8
30 13:56 SE 14 0.00 NULL NULL 75 70 84% 75 29.73 1005.3
30 12:56 SE 10 0.00 NULL NULL 72 69.1 72 66.9 91% 29.76 1006.1
30 11:56 E 9 0.00 NULL NULL 70 68 93% 29.76 1006.2
30 10:56 E 12 0.00 NULL NULL 69.1 68 96% 29.76 1006.3
30 09:56 E 8 0.00 NULL NULL 68 66.9 96% 29.75 1006.1
30 08:56 E 8 0.00 NULL NULL 68 66.9 96% 29.76 1006.4
30 07:56 E 6 0.00 NULL NULL 68 66.9 96% 29.77 1006.5
30 06:56 SE 6 0.00 NULL NULL 66.9 66 66.9 64.9 97% 29.76 1006.1 0.02
30 05:56 SE 6 0.00 NULL NULL 66 66 100% 29.74 1005.2
30 04:56 Calm 0.00 NULL NULL 66 66 100% 29.75 1005.8 0.02
30 03:56 E 3 0.00 NULL NULL 66 64.9 96% 29.77 1006.4
30 02:56 Calm 0.00 NULL NULL 64.9 64.9 100% 29.77 1006.4
30 01:56 E 3 0.00 NULL NULL 64.9 64.9 100% 29.76 1006.2
30 00:56 SE 3 0.00 NULL NULL 66.9 64.9 75.9 66 93% 29.8 1007.6
29 23:56 Calm 0.00 NULL NULL 66.9 66 97% 29.8 1007.4
29 22:56 S 3 0.00 NULL NULL 70 66.9 90% 29.8 1007.4
29 21:56 E 7 0.00 NULL NULL 71.1 66.9 87% 29.8 1007.5
29 20:56 E 6 0.00 NULL NULL 72 68 87% 29.79 1007.3
29 19:56 E 7 0.00 NULL NULL 73.9 68 82% 29.76 1006.1
29 18:56 E 8 0.00 NULL NULL 77 69.1 82 75 77% 79 29.76 1006.1
29 17:56 E 8 0.00 NULL NULL 79 69.1 72% 82 29.76 1005.9
29 16:56 E 8 0.00 NULL NULL 81 70 69% 84 29.75 1005.8
29 15:56 E 9 0.00 NULL NULL 82 70 67% 86 29.76 1005.8
Date Time (cdt) Wind (mph) Vis. (mi.) Weather Sky Cond. Air Dwpt Max. Min. Relative Humidity Wind Chill (°F) Heat Index (°F) altimeter (in) sea level (mb) 1 hr 3 hr 6 hr
6 hour
Temperature (ºF) Pressure Precipitation (in)